createdAt,value
2019-02-02T00:00:15.865Z,1.29
2019-02-02T00:01:15.924Z,1.24
2019-02-02T00:02:15.193Z,1.24
2019-02-02T00:03:15.464Z,1.22
2019-02-02T00:04:17.424Z,1.19
2019-02-02T00:05:15.016Z,1.20
2019-02-02T00:06:15.285Z,1.18
2019-02-02T00:07:15.546Z,1.19
2019-02-02T00:08:15.813Z,1.18
2019-02-02T00:09:15.096Z,1.15
2019-02-02T00:10:15.368Z,1.13
2019-02-02T00:11:15.421Z,1.12
2019-02-02T00:12:15.686Z,1.10
2019-02-02T00:13:15.954Z,1.07
2019-02-02T00:14:15.220Z,1.10
2019-02-02T00:15:15.495Z,1.07
2019-02-02T00:16:15.757Z,1.10
2019-02-02T00:17:15.023Z,1.07
2019-02-02T00:18:15.285Z,1.10
2019-02-02T00:19:15.552Z,1.09
2019-02-02T00:20:15.831Z,1.12
2019-02-02T00:21:15.889Z,1.15
2019-02-02T00:22:15.155Z,1.10
2019-02-02T00:23:15.431Z,1.12
2019-02-02T00:24:15.694Z,1.10
2019-02-02T00:25:15.971Z,1.15
2019-02-02T00:26:15.235Z,1.15
2019-02-02T00:27:15.500Z,1.16
2019-02-02T00:28:15.758Z,1.12
2019-02-02T00:29:15.014Z,1.12
2019-02-02T00:30:15.306Z,1.12
2019-02-02T00:31:15.336Z,1.16
2019-02-02T00:32:15.594Z,1.18
2019-02-02T00:33:15.854Z,1.23
2019-02-02T00:34:15.148Z,1.23
2019-02-02T00:35:15.414Z,1.23
2019-02-02T00:36:15.687Z,1.20
2019-02-02T00:37:15.952Z,1.20
2019-02-02T00:38:15.222Z,1.16
2019-02-02T00:39:15.491Z,1.10
2019-02-02T00:40:15.769Z,1.10
2019-02-02T00:41:15.792Z,1.12
2019-02-02T00:42:15.064Z,1.09
2019-02-02T00:43:15.325Z,1.09
2019-02-02T00:44:15.582Z,1.09
2019-02-02T00:45:15.844Z,1.09
2019-02-02T00:46:15.108Z,1.10
2019-02-02T00:47:15.370Z,1.07
2019-02-02T00:48:15.640Z,1.04
2019-02-02T00:49:15.902Z,1.07
2019-02-02T00:50:15.182Z,1.06
2019-02-02T00:51:15.212Z,1.04
2019-02-02T00:52:15.483Z,1.02
2019-02-02T00:53:15.738Z,1.03
2019-02-02T00:54:15.009Z,1.04
2019-02-02T00:55:15.272Z,1.04
2019-02-02T00:56:15.535Z,0.99
2019-02-02T00:57:15.798Z,0.98
2019-02-02T00:58:15.065Z,0.99
2019-02-02T00:59:15.338Z,0.96
2019-02-02T01:00:15.614Z,0.93
2019-02-02T01:01:15.671Z,0.98
2019-02-02T01:02:15.933Z,0.93
2019-02-02T01:03:15.199Z,0.96
2019-02-02T01:04:15.457Z,0.96
2019-02-02T01:05:15.723Z,0.92
2019-02-02T01:06:14.975Z,0.92
2019-02-02T01:07:15.244Z,0.95
2019-02-02T01:08:15.498Z,0.96
2019-02-02T01:09:15.771Z,0.89
2019-02-02T01:10:15.059Z,0.82
2019-02-02T01:11:15.164Z,0.75
2019-02-02T01:12:15.432Z,0.75
2019-02-02T01:13:15.842Z,0.69
2019-02-02T01:14:15.123Z,0.72
2019-02-02T01:15:15.400Z,0.69
2019-02-02T01:16:15.663Z,0.68
2019-02-02T01:17:15.949Z,0.65
2019-02-02T01:18:15.208Z,0.71
2019-02-02T01:19:15.479Z,0.68
2019-02-02T01:20:15.757Z,0.67
2019-02-02T01:21:15.810Z,0.71
2019-02-02T01:22:15.086Z,0.82
2019-02-02T01:23:15.345Z,0.88
2019-02-02T01:24:15.607Z,0.88
2019-02-02T01:25:16.181Z,0.91
2019-02-02T01:26:15.454Z,0.88
2019-02-02T01:27:15.706Z,0.91
2019-02-02T01:28:14.971Z,0.93
2019-02-02T01:29:15.230Z,0.92
2019-02-02T01:30:15.503Z,0.93
2019-02-02T01:31:15.551Z,0.91
2019-02-02T01:32:15.814Z,0.92
2019-02-02T01:33:15.081Z,0.89
2019-02-02T01:34:15.347Z,0.91
2019-02-02T01:35:15.625Z,0.89
2019-02-02T01:36:15.908Z,0.92
2019-02-02T01:37:15.173Z,0.91
2019-02-02T01:38:15.450Z,0.88
2019-02-02T01:39:15.711Z,0.88
2019-02-02T01:40:14.995Z,0.92
2019-02-02T01:41:15.338Z,0.88
2019-02-02T01:42:15.612Z,0.91
2019-02-02T01:43:15.865Z,0.85
2019-02-02T01:44:15.142Z,0.83
2019-02-02T01:45:15.408Z,0.86
2019-02-02T01:46:15.677Z,0.82
2019-02-02T01:47:15.942Z,0.83
2019-02-02T01:48:15.213Z,0.85
2019-02-02T01:49:15.479Z,0.75
2019-02-02T01:50:15.751Z,0.79
2019-02-02T01:51:15.797Z,0.78
2019-02-02T01:52:15.067Z,0.76
2019-02-02T01:53:15.356Z,0.76
2019-02-02T01:54:15.627Z,0.79
2019-02-02T01:55:15.897Z,0.79
2019-02-02T01:56:15.169Z,0.81
2019-02-02T01:57:15.450Z,0.79
2019-02-02T01:58:17.058Z,0.81
2019-02-02T01:59:15.545Z,0.78
2019-02-02T02:00:15.826Z,0.79
2019-02-02T02:01:15.881Z,0.78
2019-02-02T02:02:15.149Z,0.76
2019-02-02T02:03:15.423Z,0.81
2019-02-02T02:04:15.691Z,0.81
2019-02-02T02:05:15.949Z,0.82
2019-02-02T02:06:15.226Z,0.82
2019-02-02T02:07:15.498Z,0.81
2019-02-02T02:08:16.022Z,0.83
2019-02-02T02:09:15.299Z,0.82
2019-02-02T02:10:15.589Z,0.86
2019-02-02T02:11:15.614Z,0.86
2019-02-02T02:12:15.886Z,0.89
2019-02-02T02:13:15.179Z,0.86
2019-02-02T02:14:15.450Z,0.86
2019-02-02T02:15:15.839Z,0.83
2019-02-02T02:16:15.238Z,0.85
2019-02-02T02:17:15.504Z,0.85
2019-02-02T02:18:15.770Z,0.89
2019-02-02T02:19:15.041Z,0.88
2019-02-02T02:20:15.330Z,0.86
2019-02-02T02:21:15.362Z,0.86
2019-02-02T02:22:15.645Z,0.85
2019-02-02T02:23:15.921Z,0.83
2019-02-02T02:24:15.181Z,0.85
2019-02-02T02:25:15.438Z,0.85
2019-02-02T02:26:15.699Z,0.85
2019-02-02T02:27:14.964Z,0.81
2019-02-02T02:28:15.240Z,0.83
2019-02-02T02:29:15.515Z,0.82
2019-02-02T02:30:15.790Z,0.81
2019-02-02T02:31:15.830Z,0.81
2019-02-02T02:32:15.100Z,0.83
2019-02-02T02:33:15.402Z,0.82
2019-02-02T02:34:15.665Z,0.82
2019-02-02T02:35:15.930Z,0.83
2019-02-02T02:36:15.411Z,0.81
2019-02-02T02:37:15.679Z,0.81
2019-02-02T02:38:14.967Z,0.81
2019-02-02T02:39:15.236Z,0.79
2019-02-02T02:40:15.515Z,0.81
2019-02-02T02:41:15.544Z,0.78
2019-02-02T02:42:15.825Z,0.78
2019-02-02T02:43:15.111Z,0.81
2019-02-02T02:44:15.374Z,0.76
2019-02-02T02:45:15.660Z,0.76
2019-02-02T02:46:15.934Z,0.76
2019-02-02T02:47:15.212Z,0.79
2019-02-02T02:48:15.475Z,0.79
2019-02-02T02:49:15.734Z,0.78
2019-02-02T02:50:15.010Z,0.78
2019-02-02T02:51:15.055Z,0.78
2019-02-02T02:52:15.317Z,0.76
2019-02-02T02:53:15.595Z,0.75
2019-02-02T02:54:15.863Z,0.76
2019-02-02T02:55:15.136Z,0.76
2019-02-02T02:56:15.646Z,0.75
2019-02-02T02:57:15.921Z,0.79
2019-02-02T02:58:15.188Z,0.78
2019-02-02T02:59:15.455Z,0.76
2019-02-02T03:00:15.732Z,0.76
2019-02-02T03:01:15.776Z,0.76
2019-02-02T03:02:15.058Z,0.75
2019-02-02T03:03:15.339Z,0.75
2019-02-02T03:04:15.609Z,0.75
2019-02-02T03:05:15.897Z,0.76
2019-02-02T03:06:15.171Z,0.76
2019-02-02T03:07:15.434Z,0.71
2019-02-02T03:08:15.697Z,0.74
2019-02-02T03:09:14.962Z,0.72
2019-02-02T03:10:15.236Z,0.74
2019-02-02T03:11:15.310Z,0.74
2019-02-02T03:12:15.579Z,0.74
2019-02-02T03:13:15.854Z,0.69
2019-02-02T03:14:15.125Z,0.69
2019-02-02T03:15:15.398Z,0.69
2019-02-02T03:16:15.659Z,0.68
2019-02-02T03:17:15.927Z,0.64
2019-02-02T03:18:15.200Z,0.60
2019-02-02T03:19:15.465Z,0.63
2019-02-02T03:20:15.735Z,0.64
2019-02-02T03:21:15.779Z,0.65
2019-02-02T03:22:15.232Z,0.65
2019-02-02T03:23:15.627Z,0.65
2019-02-02T03:24:15.921Z,0.64
2019-02-02T03:25:15.223Z,0.61
2019-02-02T03:26:15.488Z,0.58
2019-02-02T03:27:15.759Z,0.57
2019-02-02T03:28:15.036Z,0.57
2019-02-02T03:29:15.325Z,0.57
2019-02-02T03:30:15.618Z,0.55
2019-02-02T03:31:15.693Z,0.57
2019-02-02T03:32:14.967Z,0.57
2019-02-02T03:33:15.247Z,0.57
2019-02-02T03:34:15.536Z,0.47
2019-02-02T03:35:15.829Z,0.48
2019-02-02T03:36:15.111Z,0.54
2019-02-02T03:37:15.409Z,0.54
2019-02-02T03:38:15.682Z,0.54
2019-02-02T03:39:15.952Z,0.51
2019-02-02T03:40:15.235Z,0.47
2019-02-02T03:41:15.268Z,0.47
2019-02-02T03:42:15.530Z,0.48
2019-02-02T03:43:15.800Z,0.48
2019-02-02T03:44:15.065Z,0.48
2019-02-02T03:45:15.334Z,0.44
2019-02-02T03:46:15.618Z,0.41
2019-02-02T03:47:15.883Z,0.41
2019-02-02T03:48:15.164Z,0.43
2019-02-02T03:49:15.428Z,0.40
2019-02-02T03:50:15.725Z,0.36
2019-02-02T03:51:15.754Z,0.38
2019-02-02T03:52:15.030Z,0.38
2019-02-02T03:53:15.300Z,0.38
2019-02-02T03:54:15.570Z,0.37
2019-02-02T03:55:15.839Z,0.36
2019-02-02T03:56:15.157Z,0.38
2019-02-02T03:57:15.650Z,0.37
2019-02-02T03:58:15.912Z,0.40
2019-02-02T03:59:15.170Z,0.37
2019-02-02T04:00:15.470Z,0.37
2019-02-02T04:01:15.488Z,0.45
2019-02-02T04:02:15.764Z,0.43
2019-02-02T04:03:15.033Z,0.38
2019-02-02T04:04:15.317Z,0.38
2019-02-02T04:05:15.595Z,0.38
2019-02-02T04:06:15.871Z,0.37
2019-02-02T04:07:15.142Z,0.36
2019-02-02T04:08:15.410Z,0.33
2019-02-02T04:09:15.699Z,0.33
2019-02-02T04:10:14.979Z,0.32
2019-02-02T04:11:15.015Z,0.34
2019-02-02T04:12:15.272Z,0.33
2019-02-02T04:13:15.536Z,0.33
2019-02-02T04:14:15.816Z,0.34
2019-02-02T04:15:15.093Z,0.37
2019-02-02T04:16:15.354Z,0.36
2019-02-02T04:17:15.625Z,0.36
2019-02-02T04:18:15.890Z,0.36
2019-02-02T04:19:15.158Z,0.36
2019-02-02T04:20:15.441Z,0.36
2019-02-02T04:21:15.480Z,0.38
2019-02-02T04:22:15.754Z,0.40
2019-02-02T04:23:15.027Z,0.38
2019-02-02T04:24:15.295Z,0.40
2019-02-02T04:25:15.555Z,0.36
2019-02-02T04:26:15.838Z,0.40
2019-02-02T04:27:15.285Z,0.41
2019-02-02T04:28:15.546Z,0.41
2019-02-02T04:29:17.688Z,0.43
2019-02-02T04:30:15.468Z,0.36
2019-02-02T04:31:15.505Z,0.38
2019-02-02T04:32:15.769Z,0.37
2019-02-02T04:33:15.044Z,0.38
2019-02-02T04:34:15.321Z,0.40
2019-02-02T04:35:15.607Z,0.41
2019-02-02T04:36:15.873Z,0.37
2019-02-02T04:37:15.149Z,0.38
2019-02-02T04:38:15.426Z,0.37
2019-02-02T04:39:15.694Z,0.45
2019-02-02T04:40:15.050Z,0.44
2019-02-02T04:41:15.010Z,0.45
2019-02-02T04:42:15.317Z,0.43
2019-02-02T04:43:15.580Z,0.38
2019-02-02T04:44:15.849Z,0.40
2019-02-02T04:45:15.121Z,0.37
2019-02-02T04:46:15.395Z,0.33
2019-02-02T04:47:15.660Z,0.32
2019-02-02T04:48:15.924Z,0.34
2019-02-02T04:49:15.195Z,0.32
2019-02-02T04:50:15.510Z,0.30
2019-02-02T04:51:15.526Z,0.32
2019-02-02T04:52:15.800Z,0.32
2019-02-02T04:53:15.067Z,0.30
2019-02-02T04:54:15.333Z,0.30
2019-02-02T04:55:15.585Z,0.29
2019-02-02T04:56:15.870Z,0.27
2019-02-02T04:57:15.140Z,0.30
2019-02-02T04:58:15.409Z,0.30
2019-02-02T04:59:15.757Z,0.26
2019-02-02T05:00:15.051Z,0.24
2019-02-02T05:01:15.106Z,0.22
2019-02-02T05:02:15.367Z,0.23
2019-02-02T05:03:15.634Z,0.23
2019-02-02T05:04:15.923Z,0.26
2019-02-02T05:05:15.196Z,0.24
2019-02-02T05:06:15.467Z,0.26
2019-02-02T05:07:15.886Z,0.27
2019-02-02T05:08:15.148Z,0.26
2019-02-02T05:09:15.409Z,0.26
2019-02-02T05:10:15.677Z,0.24
2019-02-02T05:11:15.834Z,0.29
2019-02-02T05:12:15.116Z,0.26
2019-02-02T05:13:15.371Z,0.26
2019-02-02T05:14:15.646Z,0.29
2019-02-02T05:15:15.906Z,0.30
2019-02-02T05:16:15.180Z,0.32
2019-02-02T05:17:15.465Z,0.37
2019-02-02T05:18:15.720Z,0.37
2019-02-02T05:19:14.984Z,0.38
2019-02-02T05:20:15.284Z,0.40
2019-02-02T05:21:15.307Z,0.40
2019-02-02T05:22:15.564Z,0.41
2019-02-02T05:23:15.824Z,0.40
2019-02-02T05:24:15.096Z,0.40
2019-02-02T05:25:15.363Z,0.40
2019-02-02T05:26:15.625Z,0.37
2019-02-02T05:27:15.904Z,0.43
2019-02-02T05:28:15.934Z,0.44
2019-02-02T05:29:15.209Z,0.44
2019-02-02T05:30:15.486Z,0.45
2019-02-02T05:31:15.539Z,0.45
2019-02-02T05:32:15.833Z,0.48
2019-02-02T05:33:15.101Z,0.48
2019-02-02T05:34:15.379Z,0.47
2019-02-02T05:35:15.669Z,0.47
2019-02-02T05:36:15.930Z,0.48
2019-02-02T05:37:15.186Z,0.47
2019-02-02T05:38:15.441Z,0.48
2019-02-02T05:39:15.711Z,0.47
2019-02-02T05:40:15.009Z,0.45
2019-02-02T05:41:15.020Z,0.47
2019-02-02T05:42:15.294Z,0.47
2019-02-02T05:43:15.556Z,0.50
2019-02-02T05:44:15.807Z,0.50
2019-02-02T05:45:15.074Z,0.43
2019-02-02T05:46:15.353Z,0.40
2019-02-02T05:47:15.634Z,0.38
2019-02-02T05:48:15.897Z,0.40
2019-02-02T05:49:15.170Z,0.37
2019-02-02T05:50:15.447Z,0.40
2019-02-02T05:51:15.475Z,0.38
2019-02-02T05:52:15.734Z,0.37
2019-02-02T05:53:14.991Z,0.34
2019-02-02T05:54:15.264Z,0.37
2019-02-02T05:55:15.538Z,0.38
2019-02-02T05:56:15.804Z,0.40
2019-02-02T05:57:15.073Z,0.41
2019-02-02T05:58:15.337Z,0.40
2019-02-02T05:59:15.604Z,0.43
2019-02-02T06:00:15.875Z,0.38
2019-02-02T06:01:15.924Z,0.38
2019-02-02T06:02:15.189Z,0.38
2019-02-02T06:03:15.441Z,0.40
2019-02-02T06:04:15.712Z,0.40
2019-02-02T06:05:15.002Z,0.43
2019-02-02T06:06:15.268Z,0.41
2019-02-02T06:07:15.533Z,0.41
2019-02-02T06:08:15.795Z,0.41
2019-02-02T06:09:15.068Z,0.40
2019-02-02T06:10:15.344Z,0.40
2019-02-02T06:11:15.395Z,0.43
2019-02-02T06:12:15.656Z,0.43
2019-02-02T06:13:15.920Z,0.40
2019-02-02T06:14:15.180Z,0.40
2019-02-02T06:15:15.445Z,0.38
2019-02-02T06:16:15.717Z,0.38
2019-02-02T06:17:14.979Z,0.36
2019-02-02T06:18:15.248Z,0.38
2019-02-02T06:19:15.511Z,0.37
2019-02-02T06:20:15.850Z,0.37
2019-02-02T06:21:15.841Z,0.30
2019-02-02T06:22:15.110Z,0.29
2019-02-02T06:23:15.370Z,0.27
2019-02-02T06:24:15.635Z,0.30
2019-02-02T06:25:15.908Z,0.32
2019-02-02T06:26:15.195Z,0.30
2019-02-02T06:27:15.464Z,0.29
2019-02-02T06:28:15.727Z,0.34
2019-02-02T06:29:15.001Z,0.36
2019-02-02T06:30:15.280Z,0.36
2019-02-02T06:31:15.330Z,0.41
2019-02-02T06:32:15.602Z,0.41
2019-02-02T06:33:15.863Z,0.36
2019-02-02T06:34:15.149Z,0.36
2019-02-02T06:35:15.444Z,0.40
2019-02-02T06:36:15.740Z,0.37
2019-02-02T06:37:15.005Z,0.37
2019-02-02T06:38:15.266Z,0.37
2019-02-02T06:39:15.528Z,0.34
2019-02-02T06:40:15.795Z,0.37
2019-02-02T06:41:15.842Z,0.34
2019-02-02T06:42:15.107Z,0.36
2019-02-02T06:43:15.375Z,0.33
2019-02-02T06:44:15.652Z,0.34
2019-02-02T06:45:15.923Z,0.33
2019-02-02T06:46:15.177Z,0.32
2019-02-02T06:47:15.440Z,0.33
2019-02-02T06:48:15.710Z,0.33
2019-02-02T06:49:14.981Z,0.33
2019-02-02T06:50:15.282Z,0.33
2019-02-02T06:51:15.298Z,0.36
2019-02-02T06:52:15.562Z,0.37
2019-02-02T06:53:15.832Z,0.38
2019-02-02T06:54:15.104Z,0.38
2019-02-02T06:55:15.378Z,0.43
2019-02-02T06:56:15.633Z,0.40
2019-02-02T06:57:15.903Z,0.43
2019-02-02T06:58:15.199Z,0.38
2019-02-02T06:59:15.460Z,0.37
2019-02-02T07:00:16.388Z,0.38
2019-02-02T07:01:15.782Z,0.37
2019-02-02T07:02:15.085Z,0.36
2019-02-02T07:03:15.463Z,0.36
2019-02-02T07:04:15.750Z,0.37
2019-02-02T07:05:15.046Z,0.37
2019-02-02T07:06:15.329Z,0.40
2019-02-02T07:07:15.599Z,0.43
2019-02-02T07:08:15.863Z,0.43
2019-02-02T07:09:15.122Z,0.41
2019-02-02T07:10:15.403Z,0.41
2019-02-02T07:11:15.447Z,0.43
2019-02-02T07:12:15.716Z,0.47
2019-02-02T07:13:15.105Z,0.47
2019-02-02T07:14:15.372Z,0.45
2019-02-02T07:15:15.660Z,0.45
2019-02-02T07:16:15.930Z,0.45
2019-02-02T07:17:15.191Z,0.45
2019-02-02T07:18:15.456Z,0.41
2019-02-02T07:19:15.728Z,0.44
2019-02-02T07:20:15.013Z,0.47
2019-02-02T07:21:15.066Z,0.45
2019-02-02T07:22:15.335Z,0.44
2019-02-02T07:23:15.606Z,0.45
2019-02-02T07:24:15.861Z,0.43
2019-02-02T07:25:15.158Z,0.47
2019-02-02T07:26:15.424Z,0.48
2019-02-02T07:27:15.685Z,0.50
2019-02-02T07:28:15.943Z,0.53
2019-02-02T07:29:15.210Z,0.50
2019-02-02T07:30:15.488Z,0.50
2019-02-02T07:31:15.801Z,0.53
2019-02-02T07:32:15.064Z,0.55
2019-02-02T07:33:15.334Z,0.57
2019-02-02T07:34:15.596Z,0.57
2019-02-02T07:35:15.862Z,0.55
2019-02-02T07:36:15.144Z,0.58
2019-02-02T07:37:15.411Z,0.58
2019-02-02T07:38:15.669Z,0.57
2019-02-02T07:39:15.935Z,0.58
2019-02-02T07:40:15.213Z,0.57
2019-02-02T07:41:15.263Z,0.57
2019-02-02T07:42:15.519Z,0.51
2019-02-02T07:43:15.794Z,0.51
2019-02-02T07:44:15.049Z,0.51
2019-02-02T07:45:15.318Z,0.51
2019-02-02T07:46:15.607Z,0.54
2019-02-02T07:47:15.880Z,0.51
2019-02-02T07:48:15.143Z,0.51
2019-02-02T07:49:15.414Z,0.51
2019-02-02T07:50:15.695Z,0.55
2019-02-02T07:51:15.751Z,0.57
2019-02-02T07:52:15.011Z,0.57
2019-02-02T07:53:15.274Z,0.55
2019-02-02T07:54:15.542Z,0.54
2019-02-02T07:55:15.807Z,0.54
2019-02-02T07:56:15.085Z,0.54
2019-02-02T07:57:15.348Z,0.53
2019-02-02T07:58:15.610Z,0.53
2019-02-02T07:59:15.882Z,0.55
2019-02-02T08:00:15.902Z,0.57
2019-02-02T08:01:15.233Z,0.60
2019-02-02T08:02:15.498Z,0.63
2019-02-02T08:03:15.770Z,0.64
2019-02-02T08:04:15.081Z,0.65
2019-02-02T08:05:15.365Z,0.67
2019-02-02T08:06:15.630Z,0.69
2019-02-02T08:07:15.910Z,0.69
2019-02-02T08:08:17.000Z,0.75
2019-02-02T08:09:15.481Z,0.75
2019-02-02T08:10:15.759Z,0.81
2019-02-02T08:11:15.807Z,0.82
2019-02-02T08:12:15.074Z,0.83
2019-02-02T08:13:15.340Z,0.85
2019-02-02T08:14:15.603Z,0.85
2019-02-02T08:15:15.895Z,0.85
2019-02-02T08:16:15.172Z,0.83
2019-02-02T08:17:15.453Z,0.85
2019-02-02T08:18:15.722Z,0.85
2019-02-02T08:19:14.987Z,0.85
2019-02-02T08:20:15.262Z,0.88
2019-02-02T08:21:15.318Z,0.89
2019-02-02T08:22:15.585Z,0.91
2019-02-02T08:23:15.843Z,0.89
2019-02-02T08:24:15.116Z,0.92
2019-02-02T08:25:15.377Z,0.96
2019-02-02T08:26:15.631Z,0.96
2019-02-02T08:27:15.896Z,0.99
2019-02-02T08:28:15.162Z,0.99
2019-02-02T08:29:15.417Z,0.96
2019-02-02T08:30:16.564Z,1.00
2019-02-02T08:31:15.723Z,1.00
2019-02-02T08:32:14.983Z,0.99
2019-02-02T08:33:15.257Z,1.00
2019-02-02T08:34:15.531Z,1.00
2019-02-02T08:35:15.801Z,0.96
2019-02-02T08:36:15.075Z,0.96
2019-02-02T08:37:15.328Z,0.96
2019-02-02T08:38:15.594Z,0.98
2019-02-02T08:39:15.864Z,0.96
2019-02-02T08:40:15.127Z,0.99
2019-02-02T08:41:15.192Z,0.99
2019-02-02T08:42:15.465Z,1.00
2019-02-02T08:43:15.728Z,1.02
2019-02-02T08:44:14.988Z,1.03
2019-02-02T08:45:15.254Z,1.04
2019-02-02T08:46:15.520Z,1.03
2019-02-02T08:47:15.790Z,1.06
2019-02-02T08:48:15.057Z,1.09
2019-02-02T08:49:15.323Z,1.10
2019-02-02T08:50:15.605Z,1.10
2019-02-02T08:51:15.642Z,1.13
2019-02-02T08:52:15.907Z,1.13
2019-02-02T08:53:15.177Z,1.15
2019-02-02T08:54:15.717Z,1.19
2019-02-02T08:55:15.024Z,1.20
2019-02-02T08:56:15.304Z,1.23
2019-02-02T08:57:15.664Z,1.29
2019-02-02T08:58:15.025Z,1.29
2019-02-02T08:59:15.488Z,1.27
2019-02-02T09:00:15.768Z,1.33
2019-02-02T09:01:15.801Z,1.31
2019-02-02T09:02:15.069Z,1.30
2019-02-02T09:03:15.337Z,1.30
2019-02-02T09:04:15.947Z,1.31
2019-02-02T09:05:15.287Z,1.36
2019-02-02T09:06:15.574Z,1.36
2019-02-02T09:07:15.858Z,1.33
2019-02-02T09:08:15.123Z,1.33
2019-02-02T09:09:15.383Z,1.33
2019-02-02T09:10:15.666Z,1.33
2019-02-02T09:11:15.698Z,1.37
2019-02-02T09:12:14.965Z,1.37
2019-02-02T09:13:15.243Z,1.37
2019-02-02T09:14:15.507Z,1.36
2019-02-02T09:15:15.774Z,1.34
2019-02-02T09:16:15.038Z,1.37
2019-02-02T09:17:15.312Z,1.40
2019-02-02T09:18:15.595Z,1.46
2019-02-02T09:19:15.873Z,1.46
2019-02-02T09:20:15.165Z,1.46
2019-02-02T09:21:15.202Z,1.47
2019-02-02T09:22:15.467Z,1.46
2019-02-02T09:23:15.735Z,1.48
2019-02-02T09:24:15.002Z,1.46
2019-02-02T09:25:15.282Z,1.43
2019-02-02T09:26:15.554Z,1.46
2019-02-02T09:27:15.817Z,1.47
2019-02-02T09:28:15.079Z,1.47
2019-02-02T09:29:15.350Z,1.43
2019-02-02T09:30:15.625Z,1.46
2019-02-02T09:31:16.214Z,1.43
2019-02-02T09:32:15.557Z,1.46
2019-02-02T09:33:16.078Z,1.46
2019-02-02T09:34:15.351Z,1.47
2019-02-02T09:35:15.612Z,1.50
2019-02-02T09:36:16.833Z,1.54
2019-02-02T09:37:15.466Z,1.54
2019-02-02T09:38:15.738Z,1.55
2019-02-02T09:39:15.012Z,1.55
2019-02-02T09:40:15.286Z,1.54
2019-02-02T09:41:15.355Z,1.55
2019-02-02T09:42:15.624Z,1.60
2019-02-02T09:43:15.900Z,1.58
2019-02-02T09:44:15.166Z,1.55
2019-02-02T09:45:15.426Z,1.61
2019-02-02T09:46:15.697Z,1.60
2019-02-02T09:47:14.972Z,1.61
2019-02-02T09:48:15.235Z,1.61
2019-02-02T09:49:15.499Z,1.61
2019-02-02T09:50:15.766Z,1.61
2019-02-02T09:51:15.809Z,1.58
2019-02-02T09:52:15.071Z,1.58
2019-02-02T09:53:15.339Z,1.61
2019-02-02T09:54:25.940Z,1.62
2019-02-02T09:55:15.298Z,1.62
2019-02-02T09:56:15.556Z,1.61
2019-02-02T09:57:17.152Z,1.65
2019-02-02T09:58:15.514Z,1.65
2019-02-02T09:59:15.786Z,1.68
2019-02-02T10:00:15.085Z,1.64
2019-02-02T10:01:26.964Z,1.68
2019-02-02T10:02:15.373Z,1.67
2019-02-02T10:03:15.633Z,1.67
2019-02-02T10:04:16.177Z,1.71
2019-02-02T10:05:15.442Z,1.69
2019-02-02T10:06:15.707Z,1.75
2019-02-02T10:07:14.977Z,1.75
2019-02-02T10:08:15.244Z,1.75
2019-02-02T10:09:15.516Z,1.81
2019-02-02T10:10:15.798Z,1.79
2019-02-02T10:11:15.828Z,1.79
2019-02-02T10:12:15.092Z,1.79
2019-02-02T10:13:15.357Z,1.78
2019-02-02T10:14:15.620Z,1.78
2019-02-02T10:15:15.923Z,1.77
2019-02-02T10:16:15.199Z,1.75
2019-02-02T10:17:15.463Z,1.77
2019-02-02T10:18:15.726Z,1.78
2019-02-02T10:19:14.987Z,1.82
2019-02-02T10:20:15.286Z,1.82
2019-02-02T10:21:15.323Z,1.82
2019-02-02T10:22:15.605Z,1.82
2019-02-02T10:23:15.877Z,1.88
2019-02-02T10:24:15.141Z,1.92
2019-02-02T10:25:15.401Z,1.95
2019-02-02T10:26:15.676Z,1.98
2019-02-02T10:27:15.933Z,1.95
2019-02-02T10:28:15.199Z,1.98
2019-02-02T10:29:15.464Z,1.98
2019-02-02T10:30:15.749Z,1.99
2019-02-02T10:31:15.766Z,1.95
2019-02-02T10:32:15.036Z,1.95
2019-02-02T10:33:15.297Z,1.95
2019-02-02T10:34:15.565Z,1.98
2019-02-02T10:35:14.958Z,1.99
2019-02-02T10:36:15.546Z,1.96
2019-02-02T10:37:15.805Z,1.99
2019-02-02T10:38:15.196Z,2.00
2019-02-02T10:39:15.464Z,2.00
2019-02-02T10:40:15.745Z,1.95
2019-02-02T10:41:15.793Z,1.99
2019-02-02T10:42:15.066Z,2.05
2019-02-02T10:43:15.344Z,2.07
2019-02-02T10:44:15.609Z,2.06
2019-02-02T10:45:15.867Z,2.07
2019-02-02T10:46:15.146Z,2.09
2019-02-02T10:47:15.399Z,2.09
2019-02-02T10:48:15.669Z,2.09
2019-02-02T10:49:14.947Z,2.13
2019-02-02T10:50:15.231Z,2.12
2019-02-02T10:51:15.273Z,2.16
2019-02-02T10:52:15.537Z,2.20
2019-02-02T10:53:15.807Z,2.20
2019-02-02T10:54:15.081Z,2.21
2019-02-02T10:55:15.340Z,2.24
2019-02-02T10:56:15.607Z,2.26
2019-02-02T10:57:15.893Z,2.26
2019-02-02T10:58:15.165Z,2.27
2019-02-02T10:59:15.432Z,2.26
2019-02-02T11:00:15.698Z,2.29
2019-02-02T11:01:15.755Z,2.30
2019-02-02T11:02:17.529Z,2.29
2019-02-02T11:03:15.259Z,2.32
2019-02-02T11:04:15.601Z,2.37
2019-02-02T11:05:15.917Z,2.37
2019-02-02T11:06:15.558Z,2.38
2019-02-02T11:07:15.946Z,2.37
2019-02-02T11:08:15.267Z,2.36
2019-02-02T11:09:15.578Z,2.41
2019-02-02T11:10:18.087Z,2.44
2019-02-02T11:11:16.031Z,2.43
2019-02-02T11:12:15.453Z,2.48
2019-02-02T11:13:16.377Z,2.47
2019-02-02T11:14:15.145Z,2.47
2019-02-02T11:15:15.433Z,2.55
2019-02-02T11:16:15.882Z,2.57
2019-02-02T11:17:15.183Z,2.58
2019-02-02T11:18:15.588Z,2.63
2019-02-02T11:19:15.178Z,2.60
2019-02-02T11:20:17.549Z,2.61
2019-02-02T11:21:15.565Z,2.63
2019-02-02T11:22:15.930Z,2.64
2019-02-02T11:23:15.304Z,2.68
2019-02-02T11:24:18.510Z,2.68
2019-02-02T11:25:15.862Z,2.63
2019-02-02T11:26:15.397Z,2.58
2019-02-02T11:27:15.751Z,2.57
2019-02-02T11:28:15.281Z,2.60
2019-02-02T11:29:15.551Z,2.61
2019-02-02T11:30:15.004Z,2.63
2019-02-02T11:31:15.075Z,2.55
2019-02-02T11:32:15.334Z,2.57
2019-02-02T11:33:15.603Z,2.63
2019-02-02T11:34:15.873Z,2.67
2019-02-02T11:35:15.148Z,2.71
2019-02-02T11:36:15.411Z,2.72
2019-02-02T11:37:15.812Z,2.72
2019-02-02T11:38:15.078Z,2.72
2019-02-02T11:39:15.342Z,2.75
2019-02-02T11:40:15.622Z,2.76
2019-02-02T11:41:15.657Z,2.81
2019-02-02T11:42:15.918Z,2.84
2019-02-02T11:43:15.188Z,2.78
2019-02-02T11:44:15.467Z,2.81
2019-02-02T11:45:15.728Z,2.76
2019-02-02T11:46:14.991Z,2.78
2019-02-02T11:47:15.254Z,2.78
2019-02-02T11:48:15.515Z,2.76
2019-02-02T11:49:15.803Z,2.76
2019-02-02T11:50:15.080Z,2.81
2019-02-02T11:51:15.185Z,2.85
2019-02-02T11:52:15.442Z,2.88
2019-02-02T11:53:15.708Z,2.89
2019-02-02T11:54:14.968Z,2.92
2019-02-02T11:55:15.247Z,2.95
2019-02-02T11:56:15.520Z,2.96
2019-02-02T11:57:15.780Z,3.03
2019-02-02T11:58:15.044Z,3.03
2019-02-02T11:59:15.323Z,3.06
2019-02-02T12:00:16.371Z,3.02
2019-02-02T12:01:15.648Z,3.03
2019-02-02T12:02:15.908Z,2.96
2019-02-02T12:03:15.176Z,2.92
2019-02-02T12:04:15.441Z,2.98
2019-02-02T12:05:15.710Z,2.99
2019-02-02T12:06:15.113Z,2.96
2019-02-02T12:07:15.374Z,2.99
2019-02-02T12:08:15.635Z,3.14
2019-02-02T12:09:16.037Z,3.13
2019-02-02T12:10:15.320Z,3.26
2019-02-02T12:11:15.369Z,3.36
2019-02-02T12:12:15.635Z,3.34
2019-02-02T12:13:15.908Z,3.36
2019-02-02T12:14:15.179Z,3.37
2019-02-02T12:15:15.444Z,3.46
2019-02-02T12:16:15.715Z,3.51
2019-02-02T12:17:14.970Z,3.55
2019-02-02T12:18:15.232Z,3.62
2019-02-02T12:19:15.514Z,3.69
2019-02-02T12:20:15.812Z,3.64
2019-02-02T12:21:15.840Z,3.67
2019-02-02T12:22:15.108Z,3.72
2019-02-02T12:23:15.371Z,3.77
2019-02-02T12:24:16.283Z,3.83
2019-02-02T12:25:15.676Z,3.86
2019-02-02T12:26:15.944Z,3.79
2019-02-02T12:27:15.204Z,3.58
2019-02-02T12:28:15.468Z,3.65
2019-02-02T12:29:15.738Z,3.72
2019-02-02T12:30:15.020Z,3.69
2019-02-02T12:31:15.080Z,3.71
2019-02-02T12:32:25.712Z,3.75
2019-02-02T12:33:15.294Z,3.78
2019-02-02T12:34:15.574Z,3.82
2019-02-02T12:35:15.842Z,3.83
2019-02-02T12:36:15.118Z,3.82
2019-02-02T12:37:15.382Z,3.90
2019-02-02T12:38:15.648Z,3.86
2019-02-02T12:39:15.930Z,3.89
2019-02-02T12:40:15.196Z,3.83
2019-02-02T12:41:15.258Z,3.86
2019-02-02T12:42:15.531Z,3.81
2019-02-02T12:43:15.798Z,3.78
2019-02-02T12:44:15.070Z,3.86
2019-02-02T12:45:15.338Z,3.86
2019-02-02T12:46:15.602Z,3.88
2019-02-02T12:47:15.867Z,3.82
2019-02-02T12:48:15.133Z,3.83
2019-02-02T12:49:15.399Z,3.79
2019-02-02T12:50:15.670Z,3.83
2019-02-02T12:51:15.730Z,3.77
2019-02-02T12:52:15.006Z,3.86
2019-02-02T12:53:15.274Z,3.85
2019-02-02T12:54:15.544Z,3.88
2019-02-02T12:55:15.807Z,3.96
2019-02-02T12:56:15.071Z,4.00
2019-02-02T12:57:15.338Z,4.06
2019-02-02T12:58:15.614Z,4.03
2019-02-02T12:59:15.884Z,4.05
2019-02-02T13:00:15.207Z,4.02
2019-02-02T13:01:15.221Z,4.06
2019-02-02T13:02:15.537Z,4.09
2019-02-02T13:03:15.805Z,4.08
2019-02-02T13:04:15.075Z,3.98
2019-02-02T13:05:15.364Z,4.05
2019-02-02T13:06:15.630Z,4.06
2019-02-02T13:07:15.886Z,4.09
2019-02-02T13:08:15.156Z,4.17
2019-02-02T13:09:15.432Z,4.19
2019-02-02T13:10:15.719Z,4.16
2019-02-02T13:11:15.768Z,4.13
2019-02-02T13:12:15.024Z,4.08
2019-02-02T13:13:15.287Z,4.13
2019-02-02T13:14:15.552Z,4.20
2019-02-02T13:15:15.806Z,4.23
2019-02-02T13:16:15.081Z,4.26
2019-02-02T13:17:15.355Z,4.26
2019-02-02T13:18:15.613Z,4.26